Time;durP1;ratioP1;P1;durP2;ratioP2;P2;SDS_P1;SDS_P2;PMS_P1;PMS_P2;Temp;Humidity;BMP_temperature;BMP_pressure;BME280_temperature;BME280_humidity;BME280_pressure;Samples;Min_cycle;Max_cycle;Signal;HPM_P1;HPM_P2
2021/12/14 00:01:23;;;;;;;7.10;3.90;;;;;;;7.47;86.59;101272.41;4992267;28;19937;-70
2021/12/14 00:03:57;;;;;;;8.38;4.70;;;;;;;7.46;86.33;101268.09;4998049;28;20068;-73
2021/12/14 00:06:23;;;;;;;9.38;5.00;;;;;;;7.45;86.62;101268.16;4994611;28;20068;-70
2021/12/14 00:09:00;;;;;;;9.35;5.45;;;;;;;7.46;86.56;101272.47;4996536;28;20110;-71
2021/12/14 00:16:43;;;;;;;8.35;4.80;;;;;;;7.48;86.13;101266.28;4995072;28;20160;-69
2021/12/14 00:19:09;;;;;;;9.45;4.53;;;;;;;7.45;86.51;101268.16;5018257;28;20697;-69
2021/12/14 00:21:34;;;;;;;8.82;4.10;;;;;;;7.44;86.00;101269.91;5008565;28;20025;-72
2021/12/14 00:24:07;;;;;;;8.25;4.57;;;;;;;7.45;86.39;101265.53;4997784;28;20025;-74
2021/12/14 00:26:49;;;;;;;7.38;3.70;;;;;;;7.46;85.95;101267.25;5005168;28;20479;-74
2021/12/14 00:29:28;;;;;;;6.22;3.70;;;;;;;7.47;85.87;101268.94;5009895;28;20038;-66
2021/12/14 00:31:55;;;;;;;;;;;;;;;7.47;86.04;101268.94;5003381;28;20046;-67
2021/12/14 00:34:33;;;;;;;6.03;3.38;;;;;;;7.49;85.77;101267.13;5009773;28;20389;-68
2021/12/14 00:36:58;;;;;;;6.78;3.10;;;;;;;7.47;85.15;101267.19;5010711;28;20050;-70
2021/12/14 00:39:24;;;;;;;6.60;3.25;;;;;;;7.46;85.79;101268.09;5010815;28;20773;-69
2021/12/14 00:41:49;;;;;;;4.82;2.83;;;;;;;7.45;85.25;101263.81;5002011;28;20371;-68
2021/12/14 00:44:14;;;;;;;6.38;2.90;;;;;;;7.45;85.59;101260.31;5003218;28;20042;-66
2021/12/14 00:46:40;;;;;;;5.13;3.10;;;;;;;7.43;85.79;101260.38;5008837;28;20041;-69
2021/12/14 00:49:08;;;;;;;6.35;2.92;;;;;;;7.41;86.18;101262.19;5007739;28;20037;-71
2021/12/14 00:51:34;;;;;;;7.60;3.22;;;;;;;7.40;86.15;101259.66;5009160;28;20022;-72
2021/12/14 00:54:02;;;;;;;5.28;2.70;;;;;;;7.43;84.76;101265.59;5009257;28;20068;-73
2021/12/14 00:56:28;;;;;;;5.90;3.07;;;;;;;7.44;85.09;101267.31;5009852;28;20053;-72
2021/12/14 00:58:53;;;;;;;6.45;2.50;;;;;;;7.48;84.37;101261.06;5008936;28;20037;-72
2021/12/14 01:01:24;;;;;;;4.15;1.92;;;;;;;7.50;84.47;101267.06;4999426;28;20083;-68
2021/12/14 01:03:54;;;;;;;2.80;1.42;;;;;;;7.54;84.23;101267.81;5009066;28;20033;-70
2021/12/14 01:06:22;;;;;;;2.85;1.13;;;;;;;7.57;83.73;101272.06;5009644;28;20097;-68
2021/12/14 01:08:49;;;;;;;1.75;1.10;;;;;;;7.60;83.33;101269.31;5000517;28;20046;-69
2021/12/14 01:11:43;;;;;;;3.17;1.08;;;;;;;7.63;82.68;101275.28;5006044;28;20773;-69
2021/12/14 01:14:15;;;;;;;2.40;1.00;;;;;;;7.66;82.98;101277.75;5003028;28;20056;-72
2021/12/14 01:16:52;;;;;;;2.70;1.00;;;;;;;7.67;82.57;101278.63;5009517;28;20034;-74
2021/12/14 01:19:26;;;;;;;2.33;1.10;;;;;;;7.67;83.05;101286.44;5008703;28;20121;-69
2021/12/14 01:22:15;;;;;;;4.55;1.60;;;;;;;7.67;83.39;101281.22;4996696;28;20121;-69
2021/12/14 01:25:01;;;;;;;5.50;2.42;;;;;;;7.62;84.32;101289.25;5005358;28;20032;-71
2021/12/14 01:27:58;;;;;;;5.53;3.05;;;;;;;7.54;85.54;101291.31;5008344;28;20029;-70
2021/12/14 01:30:48;;;;;;;6.95;3.97;;;;;;;7.50;86.66;101289.72;4999505;28;20021;-72
2021/12/14 01:33:15;;;;;;;6.20;3.35;;;;;;;7.43;87.02;101288.25;4993873;28;20069;-73
2021/12/14 01:35:44;;;;;;;8.27;3.88;;;;;;;7.39;87.27;101290.13;5008368;28;20038;-70
2021/12/14 01:38:21;;;;;;;8.50;4.45;;;;;;;7.36;87.76;101284.16;5008009;28;20040;-68
2021/12/14 01:40:56;;;;;;;7.85;4.28;;;;;;;7.30;88.38;101287.00;5006779;28;20475;-69
2021/12/14 01:43:30;;;;;;;6.97;3.80;;;;;;;7.24;88.39;101281.09;5006468;28;20045;-73
2021/12/14 01:45:59;;;;;;;9.88;4.63;;;;;;;7.21;89.22;101283.81;5007884;28;20109;-69
2021/12/14 01:48:25;;;;;;;8.15;4.47;;;;;;;7.22;89.10;101276.84;5006493;28;20030;-70
2021/12/14 01:50:56;;;;;;;7.55;4.32;;;;;;;7.18;89.91;101276.09;5005680;28;20057;-72
2021/12/14 01:53:23;;;;;;;9.80;5.30;;;;;;;7.17;89.92;101277.03;4994863;28;20023;-70
2021/12/14 01:55:53;;;;;;;7.93;4.35;;;;;;;7.13;90.33;101275.44;5007050;28;20034;-72
2021/12/14 01:58:21;;;;;;;9.15;4.45;;;;;;;7.11;90.60;101266.81;5002256;28;20038;-70
2021/12/14 02:00:53;;;;;;;7.88;4.95;;;;;;;7.08;91.10;101264.31;5003626;28;20021;-72
2021/12/14 02:03:19;;;;;;;11.40;5.03;;;;;;;7.11;90.82;101265.97;4997617;28;20112;-70
2021/12/14 02:05:50;;;;;;;9.13;4.93;;;;;;;7.05;91.92;101261.00;5005910;28;20105;-70
2021/12/14 02:08:29;;;;;;;8.85;5.25;;;;;;;7.07;91.86;101259.16;5006701;28;20095;-70
2021/12/14 02:10:57;;;;;;;8.45;5.00;;;;;;;7.05;92.52;101250.56;5000228;28;20517;-69
2021/12/14 02:13:31;;;;;;;9.75;5.15;;;;;;;7.03;92.35;101248.00;4993942;28;20037;-72
2021/12/14 02:15:59;;;;;;;9.35;5.05;;;;;;;7.00;92.33;101246.34;5005694;28;20470;-69
2021/12/14 02:18:26;;;;;;;10.55;6.07;;;;;;;7.02;92.28;101254.13;5006524;28;20128;-70
2021/12/14 02:21:09;;;;;;;10.13;5.93;;;;;;;7.03;91.87;101256.66;5005953;28;20041;-70
2021/12/14 02:23:38;;;;;;;8.23;5.10;;;;;;;7.02;92.04;101259.34;5006705;28;20121;-69
2021/12/14 02:26:06;;;;;;;10.00;6.13;;;;;;;7.00;92.34;101256.75;5001731;28;20030;-71
2021/12/14 02:28:32;;;;;;;9.00;5.50;;;;;;;7.00;92.01;101259.38;5005549;28;20040;-69
2021/12/14 02:31:01;;;;;;;11.80;6.45;;;;;;;7.02;92.05;101257.56;4999669;28;20431;-69
2021/12/14 02:33:32;;;;;;;9.77;6.32;;;;;;;7.01;92.02;101249.81;5000055;28;20044;-68
2021/12/14 02:36:00;;;;;;;9.98;5.97;;;;;;;7.01;91.66;101250.66;4999225;28;20065;-71
2021/12/14 02:38:26;;;;;;;11.38;6.30;;;;;;;7.01;91.71;101255.03;5003336;28;20380;-68
2021/12/14 02:41:05;;;;;;;9.85;6.05;;;;;;;7.01;91.74;101247.22;5002169;28;20057;-69
2021/12/14 02:43:35;;;;;;;;;;;;;;;6.99;91.44;101257.69;4997838;28;20495;-72
2021/12/14 02:46:24;;;;;;;10.75;5.80;;;;;;;7.00;91.58;101250.69;5003726;28;19997;-71
2021/12/14 02:48:54;;;;;;;10.75;4.82;;;;;;;6.99;91.28;101249.84;5003425;28;20522;-69
2021/12/14 02:51:42;;;;;;;8.52;5.45;;;;;;;6.97;90.81;101238.66;5006603;28;20097;-69
2021/12/14 02:54:34;;;;;;;10.43;5.27;;;;;;;6.99;91.06;101249.00;5004977;28;20033;-70
2021/12/14 02:57:08;;;;;;;8.10;5.07;;;;;;;7.00;90.70;101235.91;4997685;28;20539;-70
2021/12/14 02:59:36;;;;;;;8.73;4.32;;;;;;;7.00;90.32;101233.28;5031372;23;20074;-73
2021/12/14 03:02:08;;;;;;;8.43;4.27;;;;;;;7.00;90.50;101232.44;5034562;28;20048;-73
2021/12/14 03:04:44;;;;;;;12.93;4.90;;;;;;;6.95;90.65;101226.56;5039464;28;20415;-72
2021/12/14 03:07:12;;;;;;;8.93;4.68;;;;;;;6.94;90.40;101233.53;5034933;28;20033;-73
2021/12/14 03:12:37;;;;;;;10.45;5.55;;;;;;;6.94;90.17;101224.88;5027579;28;20391;-75
2021/12/14 03:15:05;;;;;;;8.05;5.00;;;;;;;6.92;90.35;101229.28;5035415;28;20034;-74
2021/12/14 03:17:31;;;;;;;8.05;4.75;;;;;;;6.92;90.35;101229.28;5035520;28;20038;-74
2021/12/14 03:20:04;;;;;;;8.13;4.97;;;;;;;6.89;90.30;101214.59;5035559;28;20037;-75
2021/12/14 03:22:40;;;;;;;7.70;4.65;;;;;;;6.89;89.98;101226.78;5038015;28;20152;-74
2021/12/14 03:25:09;;;;;;;7.07;4.20;;;;;;;6.86;90.05;101219.94;5027870;28;20081;-73
2021/12/14 03:27:39;;;;;;;8.02;4.28;;;;;;;6.87;89.30;101228.59;5043508;28;20028;-72
2021/12/14 03:30:28;;;;;;;7.78;4.57;;;;;;;6.87;89.53;101226.84;5039777;28;20100;-74
2021/12/14 03:32:55;;;;;;;;;;;;;;;6.88;89.56;101222.47;5035641;28;20037;-75
2021/12/14 03:35:33;;;;;;;12.98;4.13;;;;;;;6.89;89.27;101219.81;5039268;28;19920;-74
2021/12/14 03:38:24;;;;;;;9.32;4.10;;;;;;;6.89;89.09;101219.81;5026001;28;20446;-76
2021/12/14 03:40:57;;;;;;;8.70;3.92;;;;;;;6.86;88.50;101219.06;5054055;28;20029;-76
2021/12/14 03:43:24;;;;;;;6.75;4.07;;;;;;;6.83;89.09;101220.03;5026920;28;20113;-74
2021/12/14 03:45:49;;;;;;;8.07;4.10;;;;;;;6.81;89.22;101221.84;5035702;28;20576;-72
2021/12/14 03:48:15;;;;;;;7.45;4.10;;;;;;;6.75;89.03;101215.09;5032911;28;20021;-73
2021/12/14 03:50:41;;;;;;;8.30;4.45;;;;;;;6.74;89.17;101204.72;5022479;28;20499;-73
2021/12/14 03:53:11;;;;;;;9.63;4.93;;;;;;;6.71;89.60;101205.72;5028136;28;20034;-74
2021/12/14 03:55:43;;;;;;;8.20;4.28;;;;;;;6.70;89.44;101211.81;5030763;28;20049;-74
2021/12/14 03:58:13;;;;;;;7.00;4.53;;;;;;;6.72;89.15;101214.38;5043853;28;20029;-74
2021/12/14 04:00:47;;;;;;;9.70;4.80;;;;;;;6.69;88.76;101204.91;5034949;28;20033;-72
2021/12/14 04:03:15;;;;;;;8.57;5.15;;;;;;;6.69;88.84;101197.06;5041549;28;20045;-75
2021/12/14 04:05:42;;;;;;;6.97;4.40;;;;;;;6.70;89.00;101190.94;5039299;28;20037;-76
2021/12/14 04:08:12;;;;;;;8.10;4.90;;;;;;;6.70;88.89;101184.88;5042225;28;20120;-74
2021/12/14 04:10:40;;;;;;;7.60;4.82;;;;;;;6.68;88.87;101171.94;5043596;28;20025;-76
2021/12/14 04:13:07;;;;;;;8.02;4.70;;;;;;;6.66;89.35;101160.69;5054108;28;20037;-73
2021/12/14 04:15:33;;;;;;;9.38;5.30;;;;;;;6.62;89.34;101159.09;5060474;28;20017;-72
2021/12/14 04:17:59;;;;;;;8.00;5.05;;;;;;;6.65;89.19;101156.41;5047125;28;20028;-72
2021/12/14 04:20:30;;;;;;;8.25;5.20;;;;;;;6.63;89.30;101154.75;5042624;28;20025;-74
2021/12/14 04:22:56;;;;;;;8.93;5.03;;;;;;;6.63;88.64;101149.53;5043917;28;20502;-75
2021/12/14 04:25:32;;;;;;;8.55;4.82;;;;;;;6.64;88.93;101149.50;5034006;28;20056;-75
2021/12/14 04:27:59;;;;;;;7.65;4.43;;;;;;;6.64;88.68;101139.06;5063591;28;20681;-75
2021/12/14 04:30:26;;;;;;;9.20;5.22;;;;;;;6.64;88.82;101136.47;5035464;28;20025;-74
2021/12/14 04:32:57;;;;;;;9.05;5.32;;;;;;;6.63;88.39;101139.09;5032267;28;20033;-75
2021/12/14 04:35:23;;;;;;;8.43;4.88;;;;;;;6.61;88.41;101139.19;5043021;28;20029;-74
2021/12/14 04:37:53;;;;;;;9.18;4.78;;;;;;;6.59;88.85;101132.31;5031711;28;20036;-74
2021/12/14 04:51:59;;;;;;;10.18;5.13;;;;;;;6.51;89.93;101112.59;5040919;28;20166;-75
2021/12/14 04:54:26;;;;;;;8.50;4.93;;;;;;;6.48;89.82;101107.50;5042200;28;20017;-71
2021/12/14 04:56:52;;;;;;;11.60;5.43;;;;;;;6.46;90.06;101098.91;5034472;28;20030;-72
2021/12/14 04:59:25;;;;;;;8.40;5.15;;;;;;;6.43;89.75;101096.41;5039113;28;20044;-74
2021/12/14 05:01:54;;;;;;;8.25;5.10;;;;;;;6.44;89.94;101098.09;5040949;28;20037;-74
2021/12/14 05:04:23;;;;;;;6.63;4.68;;;;;;;6.42;89.75;101094.72;5032502;28;20033;-74
2021/12/14 05:06:55;;;;;;;10.30;5.75;;;;;;;6.40;89.40;101093.91;5045096;28;20112;-75
2021/12/14 05:09:27;;;;;;;10.98;5.78;;;;;;;6.40;89.18;101086.09;5031862;28;20021;-75
2021/12/14 05:11:52;;;;;;;11.02;6.07;;;;;;;6.41;89.13;101089.53;5033311;28;20049;-75
2021/12/14 05:14:19;;;;;;;14.20;5.22;;;;;;;6.38;88.54;101087.91;5035457;28;20379;-73
2021/12/14 05:16:45;;;;;;;10.88;5.72;;;;;;;6.39;88.71;101084.41;5035227;28;20048;-73
2021/12/14 05:19:11;;;;;;;7.95;4.80;;;;;;;6.41;88.64;101090.38;5036613;28;20041;-75
2021/12/14 05:21:46;;;;;;;6.90;4.25;;;;;;;6.43;88.73;101098.16;5036842;28;20025;-73
2021/12/14 05:24:15;;;;;;;7.18;4.22;;;;;;;6.43;87.95;101095.56;5040277;28;20656;-75
2021/12/14 05:26:42;;;;;;;11.88;5.15;;;;;;;6.45;87.88;101105.03;5033313;28;20045;-76
2021/12/14 05:29:09;;;;;;;7.05;4.28;;;;;;;6.46;87.99;101111.94;5036915;28;20454;-75
2021/12/14 05:31:41;;;;;;;8.30;3.97;;;;;;;6.49;87.84;101113.56;5036988;28;20499;-76
2021/12/14 05:34:07;;;;;;;7.45;4.10;;;;;;;6.47;87.74;101123.19;5035433;28;20033;-74
2021/12/14 05:36:32;;;;;;;8.43;4.38;;;;;;;6.45;87.58;101122.38;5037716;28;20493;-74
2021/12/14 05:39:04;;;;;;;7.25;4.13;;;;;;;6.47;87.66;101131.00;5031277;28;20045;-75
2021/12/14 05:44:25;;;;;;;8.40;4.40;;;;;;;6.46;87.26;101139.75;5025351;28;20106;-75
2021/12/14 05:46:53;;;;;;;7.57;4.85;;;;;;;6.45;87.84;101151.91;5038925;28;20041;-76
2021/12/14 05:49:22;;;;;;;7.75;4.80;;;;;;;6.45;87.56;101156.25;5035590;28;20030;-74
2021/12/14 05:51:48;;;;;;;;;;;;;;;6.47;87.11;101152.69;5032326;28;20403;-76
2021/12/14 05:54:20;;;;;;;7.22;4.43;;;;;;;6.47;86.84;101155.31;5034443;28;19928;-76
2021/12/14 05:56:45;;;;;;;7.32;4.47;;;;;;;6.48;86.75;101154.38;5032739;28;20034;-74
2021/12/14 05:59:11;;;;;;;7.28;4.50;;;;;;;6.50;87.11;101151.75;5040055;28;20360;-72
2021/12/14 06:01:36;;;;;;;6.90;4.32;;;;;;;6.51;86.61;101150.84;5038663;28;20442;-74
2021/12/14 06:04:05;;;;;;;6.38;4.22;;;;;;;6.52;86.57;101158.59;5030050;28;20034;-75
2021/12/14 06:06:42;;;;;;;7.82;4.10;;;;;;;6.51;86.45;101151.69;5035199;28;20029;-75
2021/12/14 06:09:13;;;;;;;6.85;4.10;;;;;;;6.53;86.32;101152.50;5040282;28;20019;-74
2021/12/14 06:11:39;;;;;;;7.15;4.13;;;;;;;6.54;86.24;101153.34;5041931;28;20116;-74
2021/12/14 06:14:13;;;;;;;7.85;4.13;;;;;;;6.54;86.54;101148.97;5040833;28;20051;-74
2021/12/14 06:16:39;;;;;;;9.45;4.80;;;;;;;6.51;86.36;101151.69;5040168;28;20040;-75
2021/12/14 06:19:21;;;;;;;7.05;3.85;;;;;;;6.52;86.34;101152.53;5032857;28;20040;-75
2021/12/14 06:21:54;;;;;;;8.02;4.25;;;;;;;6.48;86.63;101146.56;5041777;28;20032;-76
2021/12/14 06:24:22;;;;;;;7.88;4.30;;;;;;;6.47;86.44;101152.69;5040476;28;20083;-74
2021/12/14 06:26:51;;;;;;;10.27;3.95;;;;;;;6.48;86.69;101150.94;5032901;28;20029;-74
2021/12/14 06:29:22;;;;;;;7.32;4.10;;;;;;;6.47;86.75;101157.91;5024350;28;20051;-76
2021/12/14 06:31:49;;;;;;;7.82;3.78;;;;;;;6.50;86.83;101156.97;5036448;28;20033;-73
2021/12/14 06:34:26;;;;;;;9.05;4.15;;;;;;;6.50;86.36;101150.00;5036900;28;20065;-76
2021/12/14 06:37:02;;;;;;;6.60;3.90;;;;;;;6.52;85.98;101136.88;5039196;28;20037;-73
2021/12/14 06:39:27;;;;;;;7.30;3.92;;;;;;;6.51;86.13;101137.81;5026773;28;20025;-73
2021/12/14 06:42:04;;;;;;;9.00;4.50;;;;;;;6.52;86.23;101144.72;5027362;28;20037;-72
2021/12/14 06:44:29;;;;;;;9.45;4.60;;;;;;;6.51;86.17;101140.41;5026042;28;20049;-73
2021/12/14 06:46:55;;;;;;;8.00;4.07;;;;;;;6.50;85.90;101144.78;5023009;28;20055;-71
2021/12/14 06:49:20;;;;;;;7.22;4.28;;;;;;;6.48;86.06;101138.75;5020258;28;20037;-71
2021/12/14 06:51:50;;;;;;;8.75;4.00;;;;;;;6.48;86.22;101140.53;5029495;28;20045;-74
2021/12/14 06:54:20;;;;;;;7.38;3.65;;;;;;;6.45;85.56;101140.63;5027225;28;20059;-74
2021/12/14 06:56:51;;;;;;;7.50;3.83;;;;;;;6.46;85.91;101137.97;5029258;28;20037;-75
2021/12/14 06:59:20;;;;;;;5.85;3.55;;;;;;;6.45;85.93;101132.81;5027113;28;20053;-75
2021/12/14 07:02:08;;;;;;;6.55;3.97;;;;;;;6.44;86.06;101129.34;5029460;28;20041;-74
2021/12/14 07:04:39;;;;;;;8.02;4.38;;;;;;;6.44;85.74;101116.31;5029354;28;20029;-75
2021/12/14 07:07:11;;;;;;;11.45;5.00;;;;;;;6.45;86.04;101111.97;5036912;28;20043;-74
2021/12/14 07:09:44;;;;;;;11.88;5.80;;;;;;;6.41;86.47;101106.00;5044322;28;20033;-75
2021/12/14 07:12:11;;;;;;;15.75;6.55;;;;;;;6.41;86.80;101103.41;5025479;28;20072;-75
2021/12/14 07:14:36;;;;;;;14.15;6.57;;;;;;;6.39;86.45;101107.00;5039660;28;20025;-74
2021/12/14 07:17:10;;;;;;;15.30;6.10;;;;;;;6.36;87.19;101105.34;5029959;28;20122;-76
2021/12/14 07:19:45;;;;;;;7.80;4.63;;;;;;;6.34;87.37;101107.19;5037090;28;20371;-73
2021/12/14 07:22:38;;;;;;;11.55;5.47;;;;;;;6.30;86.81;101115.97;5032378;28;20036;-72
2021/12/14 07:25:23;;;;;;;15.25;4.80;;;;;;;6.32;87.21;101129.81;5033434;28;20088;-74
2021/12/14 07:28:00;;;;;;;8.07;5.13;;;;;;;6.30;87.29;101118.56;5030484;28;20033;-73
2021/12/14 07:30:34;;;;;;;11.52;5.07;;;;;;;6.33;87.34;101115.88;5042036;28;20022;-74
2021/12/14 07:33:05;;;;;;;9.50;5.22;;;;;;;6.29;87.13;101120.34;5035482;28;20017;-75
2021/12/14 07:35:32;;;;;;;20.17;7.28;;;;;;;6.40;87.95;101129.53;5040132;28;20029;-73
2021/12/14 07:38:16;;;;;;;10.73;6.10;;;;;;;6.59;87.45;101127.94;5034062;28;20112;-73
2021/12/14 07:40:45;;;;;;;16.13;6.85;;;;;;;6.65;86.77;101126.88;5041779;28;20042;-75
2021/12/14 07:43:18;;;;;;;9.88;5.18;;;;;;;6.59;86.16;101125.34;5041452;28;20034;-75
2021/12/14 07:45:47;;;;;;;15.52;6.70;;;;;;;6.83;87.63;101125.34;5047177;28;20017;-72
2021/12/14 07:48:13;;;;;;;14.77;5.40;;;;;;;6.79;84.87;101124.63;5039024;28;20025;-74
2021/12/14 07:50:55;;;;;;;10.15;5.13;;;;;;;6.70;84.65;101132.75;5033480;28;20118;-75
2021/12/14 07:53:37;;;;;;;8.27;5.03;;;;;;;6.60;85.39;101142.69;5034198;28;20037;-73
2021/12/14 07:56:03;;;;;;;8.50;5.07;;;;;;;6.52;85.59;101145.56;5028831;28;20045;-75
2021/12/14 07:58:33;;;;;;;8.70;5.70;;;;;;;6.50;86.07;101141.31;5036797;28;20113;-74
2021/12/14 08:00:59;;;;;;;9.95;5.57;;;;;;;6.51;85.85;101149.06;5036321;28;20057;-75
2021/12/14 08:03:28;;;;;;;9.30;5.45;;;;;;;6.49;86.42;101145.69;5032460;28;20753;-75
2021/12/14 08:05:54;;;;;;;12.55;6.05;;;;;;;6.49;85.71;101145.69;5040274;28;20053;-75
2021/12/14 08:08:33;;;;;;;10.60;5.68;;;;;;;6.50;85.46;101150.00;5031826;28;20427;-76
2021/12/14 08:11:29;;;;;;;10.65;6.25;;;;;;;6.50;85.19;101150.00;5033108;28;20040;-75
2021/12/14 08:14:08;;;;;;;9.88;6.35;;;;;;;6.53;85.90;101144.66;5042826;28;20032;-75
2021/12/14 08:16:41;;;;;;;;;;;;;;;6.51;85.38;101136.03;5035034;28;20175;-76
2021/12/14 08:19:06;;;;;;;9.68;5.45;;;;;;;6.54;85.22;101132.50;5035794;28;19913;-75
2021/12/14 08:21:32;;;;;;;8.90;5.60;;;;;;;6.54;85.25;101130.72;5036902;28;20039;-75
2021/12/14 08:24:07;;;;;;;8.93;6.10;;;;;;;6.52;84.98;101136.88;5033062;28;20075;-74
2021/12/14 08:26:41;;;;;;;9.32;6.15;;;;;;;6.57;84.95;101136.75;5029753;28;20030;-73
2021/12/14 08:29:12;;;;;;;16.17;6.20;;;;;;;6.56;84.52;101143.69;5031888;28;20025;-75
2021/12/14 08:31:44;;;;;;;11.25;6.90;;;;;;;6.58;84.92;101148.88;5033201;28;20114;-72
2021/12/14 08:34:17;;;;;;;10.63;6.50;;;;;;;6.58;84.64;101159.28;5031987;28;20025;-75
2021/12/14 08:36:52;;;;;;;10.00;6.45;;;;;;;6.59;84.47;101158.38;5035960;28;20029;-76
2021/12/14 08:39:26;;;;;;;14.98;7.38;;;;;;;6.61;84.44;101157.41;5039811;28;20017;-77
2021/12/14 08:42:08;;;;;;;10.82;6.35;;;;;;;6.61;83.92;101161.78;5031307;28;20107;-74
2021/12/14 08:44:38;;;;;;;9.15;6.40;;;;;;;6.63;84.03;101163.41;5034611;28;20108;-74
2021/12/14 08:47:06;;;;;;;18.88;7.43;;;;;;;6.64;83.79;101156.47;5036851;28;20021;-74
2021/12/14 08:49:33;;;;;;;10.85;7.10;;;;;;;6.64;83.46;101161.69;5033527;28;20095;-73
2021/12/14 08:51:58;;;;;;;10.48;7.18;;;;;;;6.65;83.63;101156.41;5036800;28;20025;-73
2021/12/14 08:54:29;;;;;;;9.80;6.75;;;;;;;6.66;83.99;101160.69;5035744;28;20017;-75
2021/12/14 08:57:01;;;;;;;12.07;7.97;;;;;;;6.69;83.78;101170.16;5031441;28;20030;-73
2021/12/14 08:59:27;;;;;;;12.73;6.90;;;;;;;6.68;83.50;101168.47;5023890;28;20398;-75
2021/12/14 09:01:54;;;;;;;12.10;7.80;;;;;;;6.70;83.46;101175.31;5021099;28;20036;-74
2021/12/14 09:04:31;;;;;;;10.88;7.03;;;;;;;6.73;83.38;101183.03;5021835;28;20037;-72
2021/12/14 09:07:01;;;;;;;12.93;7.97;;;;;;;6.75;83.34;101182.97;5032237;28;20434;-73
2021/12/14 09:09:27;;;;;;;10.40;7.38;;;;;;;6.77;83.09;101179.41;5033550;28;20053;-74
2021/12/14 09:11:59;;;;;;;15.25;8.25;;;;;;;6.81;81.61;101187.94;5028499;28;21867;-75
2021/12/14 09:14:25;;;;;;;11.50;7.90;;;;;;;6.83;82.19;101193.97;5026506;28;20060;-75
2021/12/14 09:16:57;;;;;;;12.65;7.65;;;;;;;6.87;81.48;101202.53;5037129;28;20479;-74
2021/12/14 09:19:35;;;;;;;11.77;8.10;;;;;;;6.90;81.80;101198.06;5040140;28;20108;-72
2021/12/14 09:22:04;;;;;;;11.32;7.82;;;;;;;6.92;81.21;101187.56;5022825;28;20041;-74
2021/12/14 09:24:32;;;;;;;12.32;8.10;;;;;;;6.93;80.86;101195.31;5030541;28;20025;-75
2021/12/14 09:27:01;;;;;;;12.82;8.13;;;;;;;6.94;81.29;101197.03;5038659;28;20406;-75
2021/12/14 09:29:28;;;;;;;12.88;8.90;;;;;;;6.95;81.29;101193.50;5038388;28;20081;-76
2021/12/14 09:31:57;;;;;;;13.60;8.00;;;;;;;6.96;81.38;101199.56;5034407;28;20041;-75
2021/12/14 09:34:25;;;;;;;13.30;8.52;;;;;;;7.01;81.14;101208.09;5037683;28;20033;-75
2021/12/14 09:36:53;;;;;;;11.82;7.82;;;;;;;7.01;81.23;101197.66;5036765;28;20109;-73
2021/12/14 09:39:27;;;;;;;12.38;8.23;;;;;;;7.02;81.47;101194.97;5033688;28;20114;-74
2021/12/14 09:41:53;;;;;;;13.50;8.27;;;;;;;7.05;81.55;101193.19;5037210;28;20048;-73
2021/12/14 09:44:22;;;;;;;13.07;7.97;;;;;;;7.05;82.32;101187.97;5034929;28;20045;-75
2021/12/14 09:46:49;;;;;;;13.05;7.88;;;;;;;6.99;81.37;101189.03;5037559;28;20033;-76
2021/12/14 09:49:16;;;;;;;13.18;8.38;;;;;;;6.99;81.59;101181.22;5034622;28;20058;-75
2021/12/14 09:51:46;;;;;;;12.95;8.27;;;;;;;7.01;81.57;101176.81;5036878;28;20025;-71
2021/12/14 09:54:16;;;;;;;12.43;8.13;;;;;;;7.06;81.21;101167.03;5038983;28;20019;-75
2021/12/14 09:56:47;;;;;;;13.60;9.23;;;;;;;7.11;81.46;101166.84;5036299;28;20275;-74
2021/12/14 09:59:15;;;;;;;12.80;8.13;;;;;;;7.11;80.99;101157.25;5038674;28;20026;-74
2021/12/14 10:02:05;;;;;;;13.93;8.50;;;;;;;7.08;81.06;101156.53;5028341;28;20053;-75
2021/12/14 10:04:39;;;;;;;11.45;7.85;;;;;;;7.10;81.39;101152.13;5028138;28;20029;-75
2021/12/14 10:07:05;;;;;;;17.23;8.88;;;;;;;7.10;81.12;101149.50;5036169;28;20086;-71
2021/12/14 10:09:39;;;;;;;12.60;8.93;;;;;;;7.12;80.61;101150.28;5037454;28;20539;-76
2021/12/14 10:14:51;;;;;;;13.52;8.70;;;;;;;7.15;81.08;101135.38;5035239;28;20124;-76
2021/12/14 10:17:19;;;;;;;16.33;8.32;;;;;;;7.18;81.29;101127.44;5035232;28;20038;-71
2021/12/14 10:19:47;;;;;;;12.23;8.35;;;;;;;7.15;81.35;101135.38;5040130;28;20029;-73
2021/12/14 10:22:23;;;;;;;11.55;7.95;;;;;;;7.16;81.23;101131.88;5034201;28;20546;-76
2021/12/14 10:24:55;;;;;;;12.07;8.40;;;;;;;7.18;81.02;101130.03;5035453;28;20399;-73
2021/12/14 10:27:23;;;;;;;10.95;7.70;;;;;;;7.20;81.20;101124.78;5034327;28;20017;-76
2021/12/14 10:29:48;;;;;;;12.73;8.00;;;;;;;7.14;80.97;101122.41;5040189;28;20030;-72
2021/12/14 10:32:23;;;;;;;11.45;7.97;;;;;;;7.16;80.15;101128.41;5023392;28;20087;-74
2021/12/14 10:34:55;;;;;;;16.20;8.82;;;;;;;7.13;81.24;101129.38;5033327;28;20041;-74
2021/12/14 10:37:53;;;;;;;13.20;8.52;;;;;;;7.12;81.10;101139.84;5036092;28;20057;-74
2021/12/14 10:43:19;;;;;;;12.25;8.70;;;;;;;7.18;81.05;101140.47;5030774;28;20056;-74
2021/12/14 10:46:13;;;;;;;12.95;8.60;;;;;;;7.20;80.84;101140.44;5029069;28;20033;-75
2021/12/14 10:48:41;;;;;;;13.10;8.63;;;;;;;7.23;80.61;101135.94;5029892;28;20049;-77
2021/12/14 10:51:10;;;;;;;13.98;8.88;;;;;;;7.30;81.28;101149.56;5032629;28;20025;-73
2021/12/14 10:53:41;;;;;;;11.85;8.55;;;;;;;7.30;80.64;101144.34;5034509;28;20083;-76
2021/12/14 10:56:13;;;;;;;17.80;8.25;;;;;;;7.32;80.96;101139.09;5035646;28;20045;-72
2021/12/14 10:58:40;;;;;;;20.60;8.98;;;;;;;7.28;81.31;101136.59;5042462;28;20032;-74
2021/12/14 11:01:12;;;;;;;13.63;8.98;;;;;;;7.27;81.18;101131.47;5032560;28;20130;-74
2021/12/14 11:03:43;;;;;;;18.00;8.95;;;;;;;7.28;80.64;101127.94;5028889;28;20029;-75
2021/12/14 11:06:13;;;;;;;13.50;8.50;;;;;;;7.31;80.74;101129.56;5033182;28;20044;-70
2021/12/14 11:09:01;;;;;;;12.15;8.02;;;;;;;7.35;80.46;101120.72;5039168;28;20442;-74
2021/12/14 11:11:36;;;;;;;13.82;8.85;;;;;;;7.35;80.18;101125.94;5043229;28;20025;-75
2021/12/14 11:14:06;;;;;;;12.00;8.32;;;;;;;7.40;80.40;101130.03;5039278;28;20029;-74
2021/12/14 11:19:43;;;;;;;12.18;8.55;;;;;;;7.42;80.70;101135.22;5032220;28;20065;-73
2021/12/14 11:22:25;;;;;;;14.65;9.07;;;;;;;7.40;80.53;101137.88;5031029;28;20049;-75
2021/12/14 11:25:02;;;;;;;23.88;9.18;;;;;;;7.40;80.85;101150.91;5037208;28;20120;-71
2021/12/14 11:27:32;;;;;;;14.93;8.73;;;;;;;7.42;80.50;101145.66;5026194;28;20271;-73
2021/12/14 11:30:06;;;;;;;12.88;8.20;;;;;;;7.36;81.13;101135.44;5036238;28;20017;-69
2021/12/14 11:32:31;;;;;;;13.50;8.90;;;;;;;7.39;81.02;101124.88;5035611;28;20081;-72
2021/12/14 11:34:57;;;;;;;14.55;9.05;;;;;;;7.37;81.50;101119.72;5041451;28;20037;-74
2021/12/14 11:37:32;;;;;;;14.15;9.00;;;;;;;7.35;80.88;101125.94;5031858;28;20044;-71
2021/12/14 11:39:58;;;;;;;18.20;9.00;;;;;;;7.31;80.91;101114.75;5027730;28;20042;-71
2021/12/14 11:42:26;;;;;;;13.82;9.00;;;;;;;7.28;81.26;101115.72;5030988;28;20032;-72
2021/12/14 11:45:01;;;;;;;13.32;8.80;;;;;;;7.28;81.64;101120.09;5034141;28;20037;-72
2021/12/14 11:50:15;;;;;;;15.32;9.82;;;;;;;7.32;81.26;101107.78;5043887;28;20491;-70
2021/12/14 11:52:59;;;;;;;18.23;8.82;;;;;;;7.33;81.77;101110.31;5035893;28;20474;-73
2021/12/14 11:55:33;;;;;;;12.95;9.43;;;;;;;7.36;81.79;101104.97;5034686;28;20025;-72
2021/12/14 11:58:01;;;;;;;15.27;9.10;;;;;;;7.40;81.29;101111.78;5028736;28;20045;-72
2021/12/14 12:00:27;;;;;;;13.57;9.30;;;;;;;7.39;81.44;101109.25;5028968;28;20486;-71
2021/12/14 12:02:52;;;;;;;17.60;9.48;;;;;;;7.43;81.61;101106.44;5035964;28;20048;-75
2021/12/14 12:05:21;;;;;;;16.17;10.35;;;;;;;7.45;81.98;101107.22;5029588;28;20059;-73
2021/12/14 12:10:49;;;;;;;17.15;9.57;;;;;;;7.44;81.94;101113.34;5028418;28;19975;-74
2021/12/14 12:13:15;;;;;;;15.82;10.57;;;;;;;7.46;81.81;101121.13;5025058;28;20056;-76
2021/12/14 12:15:43;;;;;;;17.38;11.07;;;;;;;7.45;81.94;101124.63;5030808;28;20520;-75
2021/12/14 12:18:10;;;;;;;18.98;11.02;;;;;;;7.43;82.02;101122.09;5034333;28;20029;-72
2021/12/14 12:20:39;;;;;;;18.42;10.65;;;;;;;7.43;82.06;101116.03;5032097;28;20071;-74
2021/12/14 12:23:07;;;;;;;;;;;;;;;7.38;81.63;101118.81;5032770;28;20037;-75
2021/12/14 12:25:40;;;;;;;16.40;10.73;;;;;;;7.38;82.35;101116.22;5029780;28;19956;-76
2021/12/14 12:28:10;;;;;;;17.75;10.35;;;;;;;7.35;82.77;101111.13;5030964;28;20037;-76